sensor_id;sensor_type;location;lat;lon;timestamp;P1;durP1;ratioP1;P2;durP2;ratioP2
30133;SDS011;16946;49.984;10.672;2023-06-22T00:00:26;16.77;;;14.70;;
30133;SDS011;16946;49.984;10.672;2023-06-22T00:00:56;17.97;;;16.33;;
30133;SDS011;16946;49.984;10.672;2023-06-22T00:01:27;16.98;;;15.45;;
30133;SDS011;16946;49.984;10.672;2023-06-22T00:01:58;17.87;;;16.17;;
30133;SDS011;16946;49.984;10.672;2023-06-22T00:02:29;18.80;;;16.87;;
30133;SDS011;16946;49.984;10.672;2023-06-22T00:02:59;16.97;;;15.37;;
30133;SDS011;16946;49.984;10.672;2023-06-22T00:03:30;18.43;;;16.23;;
30133;SDS011;16946;49.984;10.672;2023-06-22T00:04:00;17.43;;;15.70;;
30133;SDS011;16946;49.984;10.672;2023-06-22T00:04:31;17.00;;;15.50;;
30133;SDS011;16946;49.984;10.672;2023-06-22T00:05:01;16.70;;;15.20;;
30133;SDS011;16946;49.984;10.672;2023-06-22T00:05:32;17.33;;;15.63;;
30133;SDS011;16946;49.984;10.672;2023-06-22T00:06:03;18.00;;;16.20;;
30133;SDS011;16946;49.984;10.672;2023-06-22T00:06:33;18.33;;;16.43;;
30133;SDS011;16946;49.984;10.672;2023-06-22T00:07:04;17.57;;;15.97;;
30133;SDS011;16946;49.984;10.672;2023-06-22T00:07:34;16.90;;;15.30;;
30133;SDS011;16946;49.984;10.672;2023-06-22T00:08:05;17.10;;;15.37;;
30133;SDS011;16946;49.984;10.672;2023-06-22T00:08:36;17.90;;;16.30;;
30133;SDS011;16946;49.984;10.672;2023-06-22T00:09:06;18.33;;;16.53;;
30133;SDS011;16946;49.984;10.672;2023-06-22T00:09:37;16.87;;;15.47;;
30133;SDS011;16946;49.984;10.672;2023-06-22T00:10:07;17.60;;;16.07;;
30133;SDS011;16946;49.984;10.672;2023-06-22T00:10:38;18.00;;;16.30;;
30133;SDS011;16946;49.984;10.672;2023-06-22T00:11:09;21.00;;;17.20;;
30133;SDS011;16946;49.984;10.672;2023-06-22T00:11:40;18.23;;;16.27;;
30133;SDS011;16946;49.984;10.672;2023-06-22T00:12:10;17.80;;;16.13;;
30133;SDS011;16946;49.984;10.672;2023-06-22T00:12:41;17.90;;;16.00;;
30133;SDS011;16946;49.984;10.672;2023-06-22T00:13:12;17.40;;;15.57;;
30133;SDS011;16946;49.984;10.672;2023-06-22T00:13:44;17.83;;;16.10;;
30133;SDS011;16946;49.984;10.672;2023-06-22T00:14:14;17.83;;;16.10;;
30133;SDS011;16946;49.984;10.672;2023-06-22T00:14:45;17.53;;;15.70;;
30133;SDS011;16946;49.984;10.672;2023-06-22T00:15:15;16.60;;;15.10;;
30133;SDS011;16946;49.984;10.672;2023-06-22T00:15:46;16.77;;;15.27;;
30133;SDS011;16946;49.984;10.672;2023-06-22T00:16:17;17.40;;;15.70;;
30133;SDS011;16946;49.984;10.672;2023-06-22T00:16:47;16.63;;;15.03;;
30133;SDS011;16946;49.984;10.672;2023-06-22T00:17:18;18.43;;;15.10;;
30133;SDS011;16946;49.984;10.672;2023-06-22T00:17:49;16.80;;;15.30;;
30133;SDS011;16946;49.984;10.672;2023-06-22T00:18:21;16.35;;;14.75;;
30133;SDS011;16946;49.984;10.672;2023-06-22T00:18:51;16.77;;;15.17;;
30133;SDS011;16946;49.984;10.672;2023-06-22T00:19:22;16.77;;;15.07;;
30133;SDS011;16946;49.984;10.672;2023-06-22T00:19:53;16.60;;;14.95;;
30133;SDS011;16946;49.984;10.672;2023-06-22T00:20:25;16.30;;;14.52;;
30133;SDS011;16946;49.984;10.672;2023-06-22T00:21:00;15.45;;;13.70;;
30133;SDS011;16946;49.984;10.672;2023-06-22T00:21:30;17.03;;;14.83;;
30133;SDS011;16946;49.984;10.672;2023-06-22T00:22:01;15.30;;;13.80;;
30133;SDS011;16946;49.984;10.672;2023-06-22T00:22:33;15.27;;;13.88;;
30133;SDS011;16946;49.984;10.672;2023-06-22T00:23:08;15.20;;;13.70;;
30133;SDS011;16946;49.984;10.672;2023-06-22T00:23:39;15.53;;;14.03;;
30133;SDS011;16946;49.984;10.672;2023-06-22T00:24:09;15.60;;;14.20;;
30133;SDS011;16946;49.984;10.672;2023-06-22T00:24:40;15.40;;;14.00;;
30133;SDS011;16946;49.984;10.672;2023-06-22T00:25:11;15.23;;;13.80;;
30133;SDS011;16946;49.984;10.672;2023-06-22T00:25:41;15.10;;;13.60;;
30133;SDS011;16946;49.984;10.672;2023-06-22T00:26:12;14.30;;;12.90;;
30133;SDS011;16946;49.984;10.672;2023-06-22T00:26:43;15.57;;;14.05;;
30133;SDS011;16946;49.984;10.672;2023-06-22T00:27:14;15.40;;;13.87;;
30133;SDS011;16946;49.984;10.672;2023-06-22T00:27:44;14.83;;;13.30;;
30133;SDS011;16946;49.984;10.672;2023-06-22T00:28:15;14.43;;;13.13;;
30133;SDS011;16946;49.984;10.672;2023-06-22T00:28:45;16.13;;;14.43;;
30133;SDS011;16946;49.984;10.672;2023-06-22T00:29:16;14.50;;;13.20;;
30133;SDS011;16946;49.984;10.672;2023-06-22T00:29:48;14.90;;;13.55;;
30133;SDS011;16946;49.984;10.672;2023-06-22T00:30:19;14.63;;;13.33;;
30133;SDS011;16946;49.984;10.672;2023-06-22T00:30:49;15.07;;;13.63;;
30133;SDS011;16946;49.984;10.672;2023-06-22T00:31:20;14.40;;;12.73;;
30133;SDS011;16946;49.984;10.672;2023-06-22T00:31:50;14.43;;;13.03;;
30133;SDS011;16946;49.984;10.672;2023-06-22T00:32:21;15.17;;;13.47;;
30133;SDS011;16946;49.984;10.672;2023-06-22T00:32:51;14.27;;;12.97;;
30133;SDS011;16946;49.984;10.672;2023-06-22T00:33:22;14.43;;;13.17;;
30133;SDS011;16946;49.984;10.672;2023-06-22T00:33:52;13.70;;;12.50;;
30133;SDS011;16946;49.984;10.672;2023-06-22T00:34:23;14.20;;;12.90;;
30133;SDS011;16946;49.984;10.672;2023-06-22T00:34:53;14.70;;;13.40;;
30133;SDS011;16946;49.984;10.672;2023-06-22T00:35:24;14.30;;;12.80;;
30133;SDS011;16946;49.984;10.672;2023-06-22T00:36:01;14.07;;;12.77;;
30133;SDS011;16946;49.984;10.672;2023-06-22T00:36:33;15.57;;;13.30;;
30133;SDS011;16946;49.984;10.672;2023-06-22T00:37:03;13.83;;;12.57;;
30133;SDS011;16946;49.984;10.672;2023-06-22T00:37:34;16.60;;;13.80;;
30133;SDS011;16946;49.984;10.672;2023-06-22T00:38:05;14.80;;;13.40;;
30133;SDS011;16946;49.984;10.672;2023-06-22T00:38:36;15.33;;;13.83;;
30133;SDS011;16946;49.984;10.672;2023-06-22T00:39:10;13.75;;;12.52;;
30133;SDS011;16946;49.984;10.672;2023-06-22T00:39:41;14.57;;;13.30;;
30133;SDS011;16946;49.984;10.672;2023-06-22T00:40:12;13.95;;;12.63;;
30133;SDS011;16946;49.984;10.672;2023-06-22T00:40:44;15.20;;;13.77;;
30133;SDS011;16946;49.984;10.672;2023-06-22T00:41:14;14.57;;;13.13;;
30133;SDS011;16946;49.984;10.672;2023-06-22T00:41:45;14.87;;;13.43;;
30133;SDS011;16946;49.984;10.672;2023-06-22T00:42:15;14.90;;;12.97;;
30133;SDS011;16946;49.984;10.672;2023-06-22T00:42:46;14.00;;;12.73;;
30133;SDS011;16946;49.984;10.672;2023-06-22T00:43:16;14.83;;;13.33;;
30133;SDS011;16946;49.984;10.672;2023-06-22T00:43:47;14.90;;;13.47;;
30133;SDS011;16946;49.984;10.672;2023-06-22T00:44:18;14.47;;;13.07;;
30133;SDS011;16946;49.984;10.672;2023-06-22T00:44:48;14.47;;;12.50;;
30133;SDS011;16946;49.984;10.672;2023-06-22T00:45:19;13.60;;;12.33;;
30133;SDS011;16946;49.984;10.672;2023-06-22T00:45:49;13.40;;;12.20;;
30133;SDS011;16946;49.984;10.672;2023-06-22T00:46:20;13.50;;;12.30;;
30133;SDS011;16946;49.984;10.672;2023-06-22T00:46:52;14.80;;;12.98;;
30133;SDS011;16946;49.984;10.672;2023-06-22T00:47:23;13.30;;;12.10;;
30133;SDS011;16946;49.984;10.672;2023-06-22T00:47:55;17.37;;;13.00;;
30133;SDS011;16946;49.984;10.672;2023-06-22T00:48:27;14.15;;;12.50;;
30133;SDS011;16946;49.984;10.672;2023-06-22T00:48:58;15.47;;;13.57;;
30133;SDS011;16946;49.984;10.672;2023-06-22T00:49:30;14.05;;;12.55;;
30133;SDS011;16946;49.984;10.672;2023-06-22T00:50:00;13.93;;;12.43;;
30133;SDS011;16946;49.984;10.672;2023-06-22T00:50:33;13.82;;;12.50;;
30133;SDS011;16946;49.984;10.672;2023-06-22T00:51:04;14.23;;;12.85;;
30133;SDS011;16946;49.984;10.672;2023-06-22T00:51:34;14.47;;;13.07;;
30133;SDS011;16946;49.984;10.672;2023-06-22T00:52:08;15.43;;;12.75;;
30133;SDS011;16946;49.984;10.672;2023-06-22T00:52:43;13.77;;;12.48;;
30133;SDS011;16946;49.984;10.672;2023-06-22T00:53:14;15.17;;;13.77;;
30133;SDS011;16946;49.984;10.672;2023-06-22T00:53:48;13.73;;;12.52;;
30133;SDS011;16946;49.984;10.672;2023-06-22T00:54:19;14.00;;;12.57;;
30133;SDS011;16946;49.984;10.672;2023-06-22T00:54:54;14.45;;;12.18;;
30133;SDS011;16946;49.984;10.672;2023-06-22T00:55:26;13.88;;;12.48;;
30133;SDS011;16946;49.984;10.672;2023-06-22T00:55:58;14.43;;;13.02;;
30133;SDS011;16946;49.984;10.672;2023-06-22T00:56:29;14.57;;;12.88;;
30133;SDS011;16946;49.984;10.672;2023-06-22T00:57:00;14.20;;;12.90;;
30133;SDS011;16946;49.984;10.672;2023-06-22T00:57:31;13.93;;;12.50;;
30133;SDS011;16946;49.984;10.672;2023-06-22T00:58:02;14.85;;;13.40;;
30133;SDS011;16946;49.984;10.672;2023-06-22T00:58:36;14.30;;;12.90;;
30133;SDS011;16946;49.984;10.672;2023-06-22T00:59:06;14.98;;;13.55;;
30133;SDS011;16946;49.984;10.672;2023-06-22T00:59:37;14.13;;;12.60;;
30133;SDS011;16946;49.984;10.672;2023-06-22T01:00:09;13.88;;;12.48;;
30133;SDS011;16946;49.984;10.672;2023-06-22T01:00:42;13.95;;;12.57;;
30133;SDS011;16946;49.984;10.672;2023-06-22T01:01:13;14.93;;;13.53;;
30133;SDS011;16946;49.984;10.672;2023-06-22T01:01:44;14.90;;;13.50;;
30133;SDS011;16946;49.984;10.672;2023-06-22T01:02:15;13.93;;;12.43;;
30133;SDS011;16946;49.984;10.672;2023-06-22T01:02:46;14.80;;;13.03;;
30133;SDS011;16946;49.984;10.672;2023-06-22T01:03:16;14.50;;;13.10;;
30133;SDS011;16946;49.984;10.672;2023-06-22T01:03:47;14.20;;;12.57;;
30133;SDS011;16946;49.984;10.672;2023-06-22T01:04:18;14.80;;;13.30;;
30133;SDS011;16946;49.984;10.672;2023-06-22T01:04:49;14.73;;;12.97;;
30133;SDS011;16946;49.984;10.672;2023-06-22T01:05:20;14.67;;;13.27;;
30133;SDS011;16946;49.984;10.672;2023-06-22T01:05:51;15.43;;;13.48;;
30133;SDS011;16946;49.984;10.672;2023-06-22T01:06:33;15.57;;;14.10;;
30133;SDS011;16946;49.984;10.672;2023-06-22T01:09:15;14.95;;;13.45;;
30133;SDS011;16946;49.984;10.672;2023-06-22T01:10:39;15.95;;;14.35;;
30133;SDS011;16946;49.984;10.672;2023-06-22T01:11:54;15.10;;;13.48;;
30133;SDS011;16946;49.984;10.672;2023-06-22T01:12:30;14.35;;;12.82;;
30133;SDS011;16946;49.984;10.672;2023-06-22T01:13:22;15.45;;;13.95;;
30133;SDS011;16946;49.984;10.672;2023-06-22T01:14:05;16.50;;;14.65;;
30133;SDS011;16946;49.984;10.672;2023-06-22T01:14:41;15.38;;;13.95;;
30133;SDS011;16946;49.984;10.672;2023-06-22T01:15:25;18.92;;;15.00;;
30133;SDS011;16946;49.984;10.672;2023-06-22T01:16:54;16.08;;;14.52;;
30133;SDS011;16946;49.984;10.672;2023-06-22T01:17:27;16.75;;;15.25;;
30133;SDS011;16946;49.984;10.672;2023-06-22T01:17:58;15.95;;;14.45;;
30133;SDS011;16946;49.984;10.672;2023-06-22T01:18:30;16.02;;;14.38;;
30133;SDS011;16946;49.984;10.672;2023-06-22T01:19:09;15.82;;;14.32;;
30133;SDS011;16946;49.984;10.672;2023-06-22T01:19:49;18.60;;;14.90;;
30133;SDS011;16946;49.984;10.672;2023-06-22T01:20:26;16.95;;;15.45;;
30133;SDS011;16946;49.984;10.672;2023-06-22T01:20:59;16.25;;;14.73;;
30133;SDS011;16946;49.984;10.672;2023-06-22T01:21:32;16.65;;;14.43;;
30133;SDS011;16946;49.984;10.672;2023-06-22T01:22:03;16.53;;;14.50;;
30133;SDS011;16946;49.984;10.672;2023-06-22T01:22:44;16.48;;;14.88;;
30133;SDS011;16946;49.984;10.672;2023-06-22T01:23:33;17.52;;;15.25;;
30133;SDS011;16946;49.984;10.672;2023-06-22T01:24:22;17.13;;;15.43;;
30133;SDS011;16946;49.984;10.672;2023-06-22T01:25:42;18.00;;;15.70;;
30133;SDS011;16946;49.984;10.672;2023-06-22T01:26:06;17.92;;;16.13;;
30133;SDS011;16946;49.984;10.672;2023-06-22T01:26:54;17.50;;;15.57;;
30133;SDS011;16946;49.984;10.672;2023-06-22T01:28:20;18.58;;;16.85;;
30133;SDS011;16946;49.984;10.672;2023-06-22T01:29:11;19.52;;;17.67;;
30133;SDS011;16946;49.984;10.672;2023-06-22T01:29:44;20.90;;;18.85;;
30133;SDS011;16946;49.984;10.672;2023-06-22T01:30:15;21.42;;;18.80;;
30133;SDS011;16946;49.984;10.672;2023-06-22T01:30:47;19.58;;;17.63;;
30133;SDS011;16946;49.984;10.672;2023-06-22T01:31:33;19.67;;;17.73;;
30133;SDS011;16946;49.984;10.672;2023-06-22T01:32:05;20.00;;;18.05;;
30133;SDS011;16946;49.984;10.672;2023-06-22T01:32:38;20.67;;;18.58;;
30133;SDS011;16946;49.984;10.672;2023-06-22T01:33:10;19.85;;;17.95;;
30133;SDS011;16946;49.984;10.672;2023-06-22T01:33:43;20.13;;;18.15;;
30133;SDS011;16946;49.984;10.672;2023-06-22T01:34:16;20.17;;;18.08;;
30133;SDS011;16946;49.984;10.672;2023-06-22T01:34:47;21.05;;;19.02;;
30133;SDS011;16946;49.984;10.672;2023-06-22T01:35:19;20.05;;;18.15;;
30133;SDS011;16946;49.984;10.672;2023-06-22T01:35:51;20.65;;;18.65;;
30133;SDS011;16946;49.984;10.672;2023-06-22T01:36:22;20.27;;;18.40;;
30133;SDS011;16946;49.984;10.672;2023-06-22T01:36:54;19.58;;;17.77;;
30133;SDS011;16946;49.984;10.672;2023-06-22T01:37:26;22.67;;;17.33;;
30133;SDS011;16946;49.984;10.672;2023-06-22T01:38:02;19.13;;;17.15;;
30133;SDS011;16946;49.984;10.672;2023-06-22T01:38:33;19.30;;;17.40;;
30133;SDS011;16946;49.984;10.672;2023-06-22T01:39:05;18.58;;;16.23;;
30133;SDS011;16946;49.984;10.672;2023-06-22T01:39:37;18.00;;;16.30;;
30133;SDS011;16946;49.984;10.672;2023-06-22T01:40:08;18.50;;;16.80;;
30133;SDS011;16946;49.984;10.672;2023-06-22T01:40:39;16.98;;;15.38;;
30133;SDS011;16946;49.984;10.672;2023-06-22T01:41:10;18.00;;;16.20;;
30133;SDS011;16946;49.984;10.672;2023-06-22T01:41:42;18.70;;;16.98;;
30133;SDS011;16946;49.984;10.672;2023-06-22T01:42:13;17.42;;;15.82;;
30133;SDS011;16946;49.984;10.672;2023-06-22T01:42:44;17.33;;;15.83;;
30133;SDS011;16946;49.984;10.672;2023-06-22T01:43:15;17.77;;;16.15;;
30133;SDS011;16946;49.984;10.672;2023-06-22T01:43:45;17.60;;;15.90;;
30133;SDS011;16946;49.984;10.672;2023-06-22T01:44:17;17.60;;;15.80;;
30133;SDS011;16946;49.984;10.672;2023-06-22T01:44:48;17.40;;;15.80;;
30133;SDS011;16946;49.984;10.672;2023-06-22T01:45:19;16.83;;;15.20;;
30133;SDS011;16946;49.984;10.672;2023-06-22T01:45:50;17.50;;;15.80;;
30133;SDS011;16946;49.984;10.672;2023-06-22T01:46:21;17.20;;;15.70;;
30133;SDS011;16946;49.984;10.672;2023-06-22T01:46:53;15.85;;;14.35;;
30133;SDS011;16946;49.984;10.672;2023-06-22T01:47:24;16.48;;;14.77;;
30133;SDS011;16946;49.984;10.672;2023-06-22T01:47:55;16.92;;;15.32;;
30133;SDS011;16946;49.984;10.672;2023-06-22T01:48:27;16.50;;;14.90;;
30133;SDS011;16946;49.984;10.672;2023-06-22T01:48:58;17.10;;;15.40;;
30133;SDS011;16946;49.984;10.672;2023-06-22T01:49:29;16.57;;;14.80;;
30133;SDS011;16946;49.984;10.672;2023-06-22T01:50:00;17.57;;;15.47;;
30133;SDS011;16946;49.984;10.672;2023-06-22T01:50:31;16.20;;;14.80;;
30133;SDS011;16946;49.984;10.672;2023-06-22T01:51:02;16.20;;;14.57;;
30133;SDS011;16946;49.984;10.672;2023-06-22T01:51:33;15.55;;;14.15;;
30133;SDS011;16946;49.984;10.672;2023-06-22T01:52:03;15.53;;;14.03;;
30133;SDS011;16946;49.984;10.672;2023-06-22T01:52:35;16.48;;;14.85;;
30133;SDS011;16946;49.984;10.672;2023-06-22T01:53:05;16.70;;;15.27;;
30133;SDS011;16946;49.984;10.672;2023-06-22T01:53:36;16.83;;;14.98;;
30133;SDS011;16946;49.984;10.672;2023-06-22T01:54:07;16.20;;;14.60;;
30133;SDS011;16946;49.984;10.672;2023-06-22T01:54:39;16.43;;;14.93;;
30133;SDS011;16946;49.984;10.672;2023-06-22T01:55:10;15.82;;;14.32;;
30133;SDS011;16946;49.984;10.672;2023-06-22T01:55:40;16.43;;;14.83;;
30133;SDS011;16946;49.984;10.672;2023-06-22T01:56:11;15.70;;;14.20;;
30133;SDS011;16946;49.984;10.672;2023-06-22T01:56:42;16.47;;;14.83;;
30133;SDS011;16946;49.984;10.672;2023-06-22T01:57:12;16.17;;;14.47;;
30133;SDS011;16946;49.984;10.672;2023-06-22T01:57:43;15.83;;;14.37;;
30133;SDS011;16946;49.984;10.672;2023-06-22T01:58:13;16.63;;;15.07;;
30133;SDS011;16946;49.984;10.672;2023-06-22T01:59:48;17.13;;;15.43;;
30133;SDS011;16946;49.984;10.672;2023-06-22T01:59:52;16.17;;;14.65;;
30133;SDS011;16946;49.984;10.672;2023-06-22T02:00:30;15.75;;;14.25;;
30133;SDS011;16946;49.984;10.672;2023-06-22T02:01:10;17.35;;;14.65;;
30133;SDS011;16946;49.984;10.672;2023-06-22T02:01:42;15.90;;;14.30;;
30133;SDS011;16946;49.984;10.672;2023-06-22T02:02:20;14.63;;;13.32;;
30133;SDS011;16946;49.984;10.672;2023-06-22T02:02:59;16.33;;;14.68;;
30133;SDS011;16946;49.984;10.672;2023-06-22T02:03:34;15.95;;;14.43;;
30133;SDS011;16946;49.984;10.672;2023-06-22T02:04:13;16.55;;;14.95;;
30133;SDS011;16946;49.984;10.672;2023-06-22T02:04:51;14.80;;;13.50;;
30133;SDS011;16946;49.984;10.672;2023-06-22T02:05:31;14.45;;;13.15;;
30133;SDS011;16946;49.984;10.672;2023-06-22T02:06:07;15.05;;;13.65;;
30133;SDS011;16946;49.984;10.672;2023-06-22T02:06:44;15.93;;;14.40;;
30133;SDS011;16946;49.984;10.672;2023-06-22T02:07:18;16.35;;;14.85;;
30133;SDS011;16946;49.984;10.672;2023-06-22T02:08:11;16.73;;;14.93;;
30133;SDS011;16946;49.984;10.672;2023-06-22T02:08:49;14.88;;;13.48;;
30133;SDS011;16946;49.984;10.672;2023-06-22T02:09:31;15.93;;;14.43;;
30133;SDS011;16946;49.984;10.672;2023-06-22T02:10:02;14.98;;;13.55;;
30133;SDS011;16946;49.984;10.672;2023-06-22T02:10:36;15.75;;;14.20;;
30133;SDS011;16946;49.984;10.672;2023-06-22T02:11:10;15.27;;;13.65;;
30133;SDS011;16946;49.984;10.672;2023-06-22T02:11:44;15.57;;;14.10;;
30133;SDS011;16946;49.984;10.672;2023-06-22T02:12:17;15.23;;;13.73;;
30133;SDS011;16946;49.984;10.672;2023-06-22T02:12:53;15.70;;;14.20;;
30133;SDS011;16946;49.984;10.672;2023-06-22T02:13:24;14.93;;;13.52;;
30133;SDS011;16946;49.984;10.672;2023-06-22T02:13:55;14.47;;;13.13;;
30133;SDS011;16946;49.984;10.672;2023-06-22T02:14:27;15.20;;;13.80;;
30133;SDS011;16946;49.984;10.672;2023-06-22T02:14:59;15.93;;;14.07;;
30133;SDS011;16946;49.984;10.672;2023-06-22T02:15:30;14.45;;;13.07;;
30133;SDS011;16946;49.984;10.672;2023-06-22T02:16:01;14.57;;;13.17;;
30133;SDS011;16946;49.984;10.672;2023-06-22T02:16:32;15.13;;;13.73;;
30133;SDS011;16946;49.984;10.672;2023-06-22T02:17:03;14.23;;;13.02;;
30133;SDS011;16946;49.984;10.672;2023-06-22T02:17:37;14.40;;;12.98;;
30133;SDS011;16946;49.984;10.672;2023-06-22T02:18:08;16.17;;;13.18;;
30133;SDS011;16946;49.984;10.672;2023-06-22T02:18:39;15.40;;;13.90;;
30133;SDS011;16946;49.984;10.672;2023-06-22T02:19:16;14.75;;;13.27;;
30133;SDS011;16946;49.984;10.672;2023-06-22T02:19:48;19.75;;;14.05;;
30133;SDS011;16946;49.984;10.672;2023-06-22T02:20:19;15.80;;;14.23;;
30133;SDS011;16946;49.984;10.672;2023-06-22T02:20:50;16.45;;;14.80;;
30133;SDS011;16946;49.984;10.672;2023-06-22T02:21:20;16.20;;;14.60;;
30133;SDS011;16946;49.984;10.672;2023-06-22T02:21:51;15.43;;;13.82;;
30133;SDS011;16946;49.984;10.672;2023-06-22T02:22:22;15.70;;;13.87;;
30133;SDS011;16946;49.984;10.672;2023-06-22T02:22:53;15.77;;;14.15;;
30133;SDS011;16946;49.984;10.672;2023-06-22T02:23:24;14.30;;;13.00;;
30133;SDS011;16946;49.984;10.672;2023-06-22T02:23:54;14.87;;;13.37;;
30133;SDS011;16946;49.984;10.672;2023-06-22T02:24:25;14.87;;;13.37;;
30133;SDS011;16946;49.984;10.672;2023-06-22T02:24:55;16.10;;;14.57;;
30133;SDS011;16946;49.984;10.672;2023-06-22T02:25:26;14.20;;;12.90;;
30133;SDS011;16946;49.984;10.672;2023-06-22T02:25:57;14.90;;;13.43;;
30133;SDS011;16946;49.984;10.672;2023-06-22T02:26:28;15.50;;;13.48;;
30133;SDS011;16946;49.984;10.672;2023-06-22T02:27:00;14.77;;;13.37;;
30133;SDS011;16946;49.984;10.672;2023-06-22T02:27:31;14.98;;;13.63;;
30133;SDS011;16946;49.984;10.672;2023-06-22T02:28:02;14.07;;;12.73;;
30133;SDS011;16946;49.984;10.672;2023-06-22T02:28:33;13.85;;;12.38;;
30133;SDS011;16946;49.984;10.672;2023-06-22T02:29:03;14.57;;;13.13;;
30133;SDS011;16946;49.984;10.672;2023-06-22T02:29:34;14.63;;;13.23;;
30133;SDS011;16946;49.984;10.672;2023-06-22T02:30:04;15.83;;;14.20;;
30133;SDS011;16946;49.984;10.672;2023-06-22T02:30:36;15.07;;;13.32;;
30133;SDS011;16946;49.984;10.672;2023-06-22T02:31:07;15.00;;;13.47;;
30133;SDS011;16946;49.984;10.672;2023-06-22T02:31:37;14.57;;;13.10;;
30133;SDS011;16946;49.984;10.672;2023-06-22T02:32:08;15.23;;;13.73;;
30133;SDS011;16946;49.984;10.672;2023-06-22T02:32:38;17.23;;;14.50;;
30133;SDS011;16946;49.984;10.672;2023-06-22T02:33:11;15.20;;;13.80;;
30133;SDS011;16946;49.984;10.672;2023-06-22T02:33:42;16.10;;;14.50;;
30133;SDS011;16946;49.984;10.672;2023-06-22T02:34:13;15.05;;;13.57;;
30133;SDS011;16946;49.984;10.672;2023-06-22T02:34:48;17.27;;;15.45;;
30133;SDS011;16946;49.984;10.672;2023-06-22T02:35:18;17.40;;;15.83;;
30133;SDS011;16946;49.984;10.672;2023-06-22T02:35:49;19.10;;;17.10;;
30133;SDS011;16946;49.984;10.672;2023-06-22T02:36:19;18.30;;;16.40;;
30133;SDS011;16946;49.984;10.672;2023-06-22T02:36:52;17.77;;;15.98;;
30133;SDS011;16946;49.984;10.672;2023-06-22T02:37:23;17.43;;;15.83;;
30133;SDS011;16946;49.984;10.672;2023-06-22T02:37:55;17.52;;;15.73;;
30133;SDS011;16946;49.984;10.672;2023-06-22T02:38:26;16.80;;;14.98;;
30133;SDS011;16946;49.984;10.672;2023-06-22T02:38:56;17.43;;;15.83;;
30133;SDS011;16946;49.984;10.672;2023-06-22T02:39:28;20.10;;;16.45;;
30133;SDS011;16946;49.984;10.672;2023-06-22T02:39:59;17.47;;;15.77;;
30133;SDS011;16946;49.984;10.672;2023-06-22T02:40:30;18.10;;;16.40;;
30133;SDS011;16946;49.984;10.672;2023-06-22T02:41:00;18.17;;;16.20;;
30133;SDS011;16946;49.984;10.672;2023-06-22T02:41:31;18.77;;;16.87;;
30133;SDS011;16946;49.984;10.672;2023-06-22T02:42:02;19.43;;;17.53;;
30133;SDS011;16946;49.984;10.672;2023-06-22T02:42:32;18.37;;;16.57;;
30133;SDS011;16946;49.984;10.672;2023-06-22T02:43:03;18.03;;;16.33;;
30133;SDS011;16946;49.984;10.672;2023-06-22T02:43:33;22.60;;;18.07;;
30133;SDS011;16946;49.984;10.672;2023-06-22T02:44:04;19.87;;;17.87;;
30133;SDS011;16946;49.984;10.672;2023-06-22T02:44:34;20.67;;;18.63;;
30133;SDS011;16946;49.984;10.672;2023-06-22T02:45:05;19.50;;;17.70;;
30133;SDS011;16946;49.984;10.672;2023-06-22T02:45:36;19.47;;;17.57;;
30133;SDS011;16946;49.984;10.672;2023-06-22T02:46:06;20.60;;;18.47;;
30133;SDS011;16946;49.984;10.672;2023-06-22T02:46:37;20.27;;;18.27;;
30133;SDS011;16946;49.984;10.672;2023-06-22T02:47:07;20.97;;;18.83;;
30133;SDS011;16946;49.984;10.672;2023-06-22T02:47:38;21.07;;;18.73;;
30133;SDS011;16946;49.984;10.672;2023-06-22T02:48:08;22.83;;;19.93;;
30133;SDS011;16946;49.984;10.672;2023-06-22T02:48:40;21.10;;;18.92;;
30133;SDS011;16946;49.984;10.672;2023-06-22T02:49:11;20.60;;;18.60;;
30133;SDS011;16946;49.984;10.672;2023-06-22T02:49:41;22.07;;;18.83;;
30133;SDS011;16946;49.984;10.672;2023-06-22T02:50:12;18.80;;;16.87;;
30133;SDS011;16946;49.984;10.672;2023-06-22T02:50:42;19.70;;;17.83;;
30133;SDS011;16946;49.984;10.672;2023-06-22T02:51:13;19.23;;;17.30;;
30133;SDS011;16946;49.984;10.672;2023-06-22T02:51:45;19.38;;;17.45;;
30133;SDS011;16946;49.984;10.672;2023-06-22T02:52:17;20.30;;;18.05;;
30133;SDS011;16946;49.984;10.672;2023-06-22T02:52:48;19.67;;;17.57;;
30133;SDS011;16946;49.984;10.672;2023-06-22T02:53:18;20.13;;;18.23;;
30133;SDS011;16946;49.984;10.672;2023-06-22T02:53:49;19.53;;;17.63;;
30133;SDS011;16946;49.984;10.672;2023-06-22T02:54:22;19.67;;;17.70;;
30133;SDS011;16946;49.984;10.672;2023-06-22T02:54:52;20.57;;;18.37;;
30133;SDS011;16946;49.984;10.672;2023-06-22T02:55:23;20.10;;;17.60;;
30133;SDS011;16946;49.984;10.672;2023-06-22T02:55:53;19.20;;;17.27;;
30133;SDS011;16946;49.984;10.672;2023-06-22T02:56:25;19.00;;;17.05;;
30133;SDS011;16946;49.984;10.672;2023-06-22T02:56:56;19.10;;;17.30;;
30133;SDS011;16946;49.984;10.672;2023-06-22T02:57:26;18.37;;;16.43;;
30133;SDS011;16946;49.984;10.672;2023-06-22T02:57:57;20.07;;;17.97;;
30133;SDS011;16946;49.984;10.672;2023-06-22T02:58:29;19.38;;;17.35;;
30133;SDS011;16946;49.984;10.672;2023-06-22T02:59:00;19.27;;;17.30;;
30133;SDS011;16946;49.984;10.672;2023-06-22T02:59:31;18.97;;;17.13;;
30133;SDS011;16946;49.984;10.672;2023-06-22T03:00:02;18.37;;;16.33;;
30133;SDS011;16946;49.984;10.672;2023-06-22T03:00:45;17.83;;;15.82;;
30133;SDS011;16946;49.984;10.672;2023-06-22T03:01:15;17.27;;;15.57;;
30133;SDS011;16946;49.984;10.672;2023-06-22T03:01:46;17.63;;;15.93;;
30133;SDS011;16946;49.984;10.672;2023-06-22T03:02:16;17.33;;;15.57;;
30133;SDS011;16946;49.984;10.672;2023-06-22T03:02:48;17.40;;;15.80;;
30133;SDS011;16946;49.984;10.672;2023-06-22T03:03:19;16.80;;;15.02;;
30133;SDS011;16946;49.984;10.672;2023-06-22T03:03:50;17.43;;;15.50;;
30133;SDS011;16946;49.984;10.672;2023-06-22T03:04:20;16.27;;;14.67;;
30133;SDS011;16946;49.984;10.672;2023-06-22T03:04:51;18.23;;;15.67;;
30133;SDS011;16946;49.984;10.672;2023-06-22T03:05:23;16.60;;;14.98;;
30133;SDS011;16946;49.984;10.672;2023-06-22T03:05:54;17.30;;;15.60;;
30133;SDS011;16946;49.984;10.672;2023-06-22T03:06:24;16.93;;;15.40;;
30133;SDS011;16946;49.984;10.672;2023-06-22T03:06:58;16.25;;;14.75;;
30133;SDS011;16946;49.984;10.672;2023-06-22T03:07:31;16.88;;;15.05;;
30133;SDS011;16946;49.984;10.672;2023-06-22T03:08:01;18.00;;;14.60;;
30133;SDS011;16946;49.984;10.672;2023-06-22T03:08:32;17.00;;;15.20;;
30133;SDS011;16946;49.984;10.672;2023-06-22T03:09:03;16.37;;;14.77;;
30133;SDS011;16946;49.984;10.672;2023-06-22T03:09:34;16.90;;;15.18;;
30133;SDS011;16946;49.984;10.672;2023-06-22T03:10:05;17.30;;;15.63;;
30133;SDS011;16946;49.984;10.672;2023-06-22T03:10:36;17.27;;;15.23;;
30133;SDS011;16946;49.984;10.672;2023-06-22T03:11:07;17.40;;;14.80;;
30133;SDS011;16946;49.984;10.672;2023-06-22T03:11:38;16.87;;;15.27;;
30133;SDS011;16946;49.984;10.672;2023-06-22T03:12:08;16.57;;;14.87;;